Time;durP1;ratioP1;P1;durP2;ratioP2;P2;SDS_P1;SDS_P2;PMS_P1;PMS_P2;Temp;Humidity;BMP_temperature;BMP_pressure;BME280_temperature;BME280_humidity;BME280_pressure;Samples;Min_cycle;Max_cycle;Signal;HPM_P1;HPM_P2
2022/09/21 00:00:54;;;;;;;4.67;2.33;;;8.40;99.90;;;;;;4203019;28;21171;-76
2022/09/21 00:02:58;;;;;;;3.40;2.30;;;8.40;99.90;;;;;;4199892;28;21130;-76
2022/09/21 00:05:00;;;;;;;3.03;2.10;;;8.40;99.90;;;;;;4202678;28;20467;-75
2022/09/21 00:07:02;;;;;;;3.10;2.10;;;8.40;99.90;;;;;;4200408;28;20460;-75
2022/09/21 00:09:04;;;;;;;3.27;2.23;;;8.40;99.90;;;;;;4204193;28;20962;-75
2022/09/21 00:11:07;;;;;;;3.70;2.23;;;8.30;99.90;;;;;;4204521;28;20548;-75
2022/09/21 00:13:12;;;;;;;3.70;2.50;;;8.30;99.90;;;;;;4186036;28;20481;-75
2022/09/21 00:15:16;;;;;;;3.73;2.40;;;8.30;99.90;;;;;;4205703;28;20455;-76
2022/09/21 00:17:18;;;;;;;3.07;2.63;;;8.20;99.90;;;;;;4201487;28;20932;-76
2022/09/21 00:19:21;;;;;;;4.23;2.50;;;8.20;99.90;;;;;;4202503;28;20497;-76
2022/09/21 00:21:23;;;;;;;3.87;2.40;;;8.20;99.90;;;;;;4204944;28;20451;-76
2022/09/21 00:23:25;;;;;;;2.97;2.27;;;8.20;99.90;;;;;;4205124;28;20547;-75
2022/09/21 00:25:27;;;;;;;3.97;2.40;;;8.20;99.90;;;;;;4202279;28;20501;-76
2022/09/21 00:27:29;;;;;;;4.00;2.30;;;8.20;99.90;;;;;;4201966;28;20490;-75
2022/09/21 00:29:31;;;;;;;3.80;2.23;;;8.10;99.90;;;;;;4201886;28;20972;-76
2022/09/21 00:31:33;;;;;;;3.40;2.63;;;8.10;99.90;;;;;;4200596;28;20468;-75
2022/09/21 00:33:35;;;;;;;4.77;2.80;;;8.10;99.90;;;;;;4199465;28;20494;-76
2022/09/21 00:35:39;;;;;;;4.20;2.53;;;8.10;99.90;;;;;;4199456;28;20829;-75
2022/09/21 00:37:40;;;;;;;3.57;2.27;;;8.10;99.90;;;;;;4196732;28;20493;-75
2022/09/21 00:39:42;;;;;;;4.43;2.73;;;8.00;99.90;;;;;;4194830;28;20820;-76
2022/09/21 00:41:44;;;;;;;4.03;2.60;;;8.00;99.90;;;;;;4197176;28;20848;-76
2022/09/21 00:43:47;;;;;;;3.30;2.53;;;8.00;99.90;;;;;;4202150;28;20465;-75
2022/09/21 00:45:50;;;;;;;3.53;2.47;;;8.00;99.90;;;;;;4201362;28;20489;-76
2022/09/21 00:47:53;;;;;;;3.70;2.60;;;8.00;99.90;;;;;;4203465;28;20955;-76
2022/09/21 00:49:57;;;;;;;4.83;2.63;;;7.90;99.90;;;;;;4199258;28;20466;-76
2022/09/21 00:52:03;;;;;;;4.27;2.57;;;7.90;99.90;;;;;;4195950;28;20462;-75
2022/09/21 00:54:11;;;;;;;3.60;2.50;;;7.90;99.90;;;;;;4182927;28;20483;-76
2022/09/21 00:56:14;;;;;;;3.97;2.60;;;7.90;99.90;;;;;;4203498;28;20553;-75
2022/09/21 00:58:20;;;;;;;4.40;2.60;;;7.90;99.90;;;;;;4201869;28;21078;-76
2022/09/21 01:00:22;;;;;;;4.37;2.80;;;7.90;99.90;;;;;;4202707;28;20458;-76
2022/09/21 01:02:24;;;;;;;3.00;2.27;;;7.90;99.90;;;;;;4202024;28;20569;-76
2022/09/21 01:04:28;;;;;;;3.20;2.60;;;7.90;99.90;;;;;;4202368;28;20455;-76
2022/09/21 01:06:32;;;;;;;2.93;2.40;;;7.80;99.90;;;;;;4186451;28;20491;-76
2022/09/21 01:08:36;;;;;;;3.60;2.47;;;7.80;99.90;;;;;;4195728;28;20459;-76
2022/09/21 01:10:49;;;;;;;3.17;2.40;;;7.80;99.90;;;;;;4201766;28;20546;-76
2022/09/21 01:13:09;;;;;;;4.33;2.27;;;7.80;99.90;;;;;;4205227;28;20545;-76
2022/09/21 01:15:23;;;;;;;3.90;2.20;;;7.80;99.90;;;;;;4200862;28;20518;-76
2022/09/21 01:17:33;;;;;;;3.87;2.60;;;7.70;99.90;;;;;;4203202;28;20466;-74
2022/09/21 01:20:03;;;;;;;4.43;2.80;;;7.70;99.90;;;;;;4184354;28;20463;-76
2022/09/21 01:22:15;;;;;;;4.13;2.40;;;7.70;99.90;;;;;;4200643;28;20477;-75
2022/09/21 01:24:38;;;;;;;3.70;2.67;;;7.70;99.90;;;;;;4198935;28;20447;-75
2022/09/21 01:27:19;;;;;;;4.43;2.60;;;7.70;99.90;;;;;;4202700;28;20469;-76
2022/09/21 01:29:26;;;;;;;3.87;2.67;;;7.60;99.90;;;;;;4190755;28;20454;-75
2022/09/21 01:31:36;;;;;;;3.70;2.70;;;7.60;99.90;;;;;;4142106;28;20478;-76
2022/09/21 01:33:44;;;;;;;4.67;2.70;;;7.60;99.90;;;;;;4130956;28;20893;-75
2022/09/21 01:35:50;;;;;;;5.17;2.97;;;7.60;99.90;;;;;;4178494;28;20473;-76
2022/09/21 01:37:56;;;;;;;5.37;3.17;;;7.50;99.90;;;;;;4199729;28;20840;-76
2022/09/21 01:40:03;;;;;;;4.73;3.23;;;7.60;99.90;;;;;;4202323;28;20459;-75
2022/09/21 01:42:07;;;;;;;5.03;3.13;;;7.50;99.90;;;;;;4200213;28;20486;-76
2022/09/21 01:44:13;;;;;;;3.90;2.87;;;7.50;99.90;;;;;;4201038;28;20939;-75
2022/09/21 01:46:21;;;;;;;3.47;2.80;;;7.50;99.90;;;;;;4182370;28;20477;-76
2022/09/21 01:48:25;;;;;;;5.10;3.30;;;7.50;99.90;;;;;;4185558;28;20463;-76
2022/09/21 01:50:33;;;;;;;3.67;2.80;;;7.40;99.90;;;;;;4186298;28;20451;-76
2022/09/21 01:52:39;;;;;;;4.13;3.10;;;7.40;99.90;;;;;;4203673;28;20547;-75
2022/09/21 01:54:45;;;;;;;4.60;3.00;;;7.40;99.90;;;;;;4202803;28;20476;-76
2022/09/21 01:56:52;;;;;;;5.23;3.33;;;7.40;99.90;;;;;;4194682;28;20711;-75
2022/09/21 01:59:03;;;;;;;4.93;3.20;;;7.40;99.90;;;;;;4204616;28;20460;-75
2022/09/21 02:01:06;;;;;;;4.17;3.20;;;7.40;99.90;;;;;;4188766;28;20971;-76
2022/09/21 02:03:14;;;;;;;4.77;2.90;;;7.40;99.90;;;;;;4194582;28;21295;-75
2022/09/21 02:05:18;;;;;;;5.30;2.80;;;7.30;99.90;;;;;;4200239;28;20493;-76
2022/09/21 02:07:21;;;;;;;4.27;3.43;;;7.30;99.90;;;;;;4202318;28;20490;-76
2022/09/21 02:09:23;;;;;;;4.60;3.20;;;7.30;99.90;;;;;;4176874;28;20518;-75
2022/09/21 02:11:25;;;;;;;6.40;3.40;;;7.30;99.90;;;;;;4155085;28;20463;-76
2022/09/21 02:13:33;;;;;;;4.37;3.00;;;7.30;99.90;;;;;;4196193;28;20463;-75
2022/09/21 02:15:48;;;;;;;4.13;2.63;;;7.30;99.90;;;;;;4199816;28;20488;-76
2022/09/21 02:17:59;;;;;;;3.60;2.77;;;7.20;99.90;;;;;;4209317;28;21024;-76
2022/09/21 02:20:13;;;;;;;3.97;3.00;;;7.20;99.90;;;;;;4182419;28;20462;-76
2022/09/21 02:22:23;;;;;;;4.20;2.93;;;7.20;99.90;;;;;;4200759;28;20521;-75
2022/09/21 02:24:40;;;;;;;4.47;3.00;;;7.20;99.90;;;;;;4177123;28;21270;-76
2022/09/21 02:26:48;;;;;;;5.53;3.40;;;7.20;99.90;;;;;;4169772;28;20488;-75
2022/09/21 02:28:56;;;;;;;5.00;3.20;;;7.20;99.90;;;;;;4203943;28;20858;-76
2022/09/21 02:31:07;;;;;;;7.50;3.37;;;7.20;99.90;;;;;;4206129;28;20453;-76
2022/09/21 02:33:13;;;;;;;4.30;2.90;;;7.20;99.90;;;;;;4201276;28;20445;-75
2022/09/21 02:35:27;;;;;;;4.37;3.07;;;7.10;99.90;;;;;;4198389;28;21010;-75
2022/09/21 02:37:35;;;;;;;4.97;3.23;;;7.10;99.90;;;;;;4202938;28;20582;-75
2022/09/21 02:39:48;;;;;;;4.50;3.00;;;7.10;99.90;;;;;;4199909;28;20493;-75
2022/09/21 02:42:01;;;;;;;5.10;3.30;;;7.10;99.90;;;;;;4200802;28;20816;-75
2022/09/21 02:44:09;;;;;;;4.93;3.30;;;7.10;99.90;;;;;;4203775;28;20456;-74
2022/09/21 02:46:15;;;;;;;5.20;3.67;;;7.10;99.90;;;;;;4200909;28;21032;-75
2022/09/21 02:48:20;;;;;;;5.23;3.40;;;7.10;99.90;;;;;;4200918;28;20824;-76
2022/09/21 02:50:27;;;;;;;6.57;3.80;;;7.00;99.90;;;;;;4182439;28;20544;-76
2022/09/21 02:52:31;;;;;;;4.77;3.30;;;7.00;99.90;;;;;;4201365;28;20536;-75
2022/09/21 02:54:34;;;;;;;5.17;3.07;;;7.00;99.90;;;;;;4199991;28;20843;-76
2022/09/21 02:56:37;;;;;;;4.30;3.20;;;7.00;99.90;;;;;;4204629;28;20470;-75
2022/09/21 02:58:42;;;;;;;4.33;3.23;;;7.00;99.90;;;;;;4202038;28;20541;-75
2022/09/21 03:00:44;;;;;;;4.97;3.37;;;6.90;99.90;;;;;;4201889;28;20459;-75
2022/09/21 03:02:46;;;;;;;4.40;3.43;;;6.90;99.90;;;;;;4184441;28;20468;-75
2022/09/21 03:04:49;;;;;;;4.43;3.20;;;6.90;99.90;;;;;;4205233;28;20793;-75
2022/09/21 03:06:52;;;;;;;4.33;3.10;;;6.90;99.90;;;;;;4201389;28;20484;-76
2022/09/21 03:08:53;;;;;;;4.30;3.27;;;6.90;99.90;;;;;;4200560;28;20464;-75
2022/09/21 03:10:56;;;;;;;4.17;2.83;;;6.90;99.90;;;;;;4200436;28;20581;-75
2022/09/21 03:12:58;;;;;;;5.03;3.17;;;6.90;99.90;;;;;;4203093;28;20944;-74
2022/09/21 03:15:00;;;;;;;4.40;3.10;;;6.80;99.90;;;;;;4204523;28;20542;-75
2022/09/21 03:17:02;;;;;;;5.17;3.07;;;6.80;99.90;;;;;;4201197;28;20462;-75
2022/09/21 03:19:04;;;;;;;4.93;3.17;;;6.80;99.90;;;;;;4200669;28;20491;-75
2022/09/21 03:21:06;;;;;;;5.33;3.33;;;6.80;99.90;;;;;;4200829;28;20453;-74
2022/09/21 03:23:10;;;;;;;4.77;3.10;;;6.80;99.90;;;;;;4201642;28;20471;-75
2022/09/21 03:25:12;;;;;;;4.80;3.10;;;6.80;99.90;;;;;;4200681;28;20456;-75
2022/09/21 03:27:14;;;;;;;4.30;2.73;;;6.70;99.90;;;;;;4199289;28;20460;-76
2022/09/21 03:29:17;;;;;;;4.33;3.17;;;6.70;99.90;;;;;;4204660;28;20902;-75
2022/09/21 03:31:18;;;;;;;6.43;3.47;;;6.70;99.90;;;;;;4206745;28;20437;-75
2022/09/21 03:33:21;;;;;;;5.33;3.77;;;6.80;99.90;;;;;;4207241;28;20472;-75
2022/09/21 03:35:24;;;;;;;5.07;3.40;;;6.70;99.90;;;;;;4202629;28;21178;-76
2022/09/21 03:37:26;;;;;;;6.47;3.50;;;6.70;99.90;;;;;;4193361;28;20911;-75
2022/09/21 03:39:29;;;;;;;7.10;3.80;;;6.70;99.90;;;;;;4200186;28;20460;-75
2022/09/21 03:41:31;;;;;;;5.67;4.20;;;6.70;99.90;;;;;;4196189;28;20523;-75
2022/09/21 03:43:33;;;;;;;8.87;4.10;;;6.60;99.90;;;;;;4201521;28;20456;-75
2022/09/21 03:45:34;;;;;;;5.90;3.97;;;6.60;99.90;;;;;;4200097;28;20477;-76
2022/09/21 03:47:37;;;;;;;5.60;3.47;;;6.60;99.90;;;;;;4202900;28;20476;-75
2022/09/21 03:49:38;;;;;;;5.80;4.00;;;6.60;99.90;;;;;;4200952;28;20461;-76
2022/09/21 03:51:40;;;;;;;5.80;3.97;;;6.50;99.90;;;;;;4204087;28;20467;-75
2022/09/21 03:53:42;;;;;;;5.63;3.97;;;6.60;99.90;;;;;;4200387;28;20449;-75
2022/09/21 03:55:45;;;;;;;5.00;3.43;;;6.50;99.90;;;;;;4199685;28;20490;-75
2022/09/21 03:57:47;;;;;;;6.97;4.63;;;6.50;99.90;;;;;;4196952;28;20466;-75
2022/09/21 03:59:49;;;;;;;6.87;4.10;;;6.50;99.90;;;;;;4184417;28;20523;-75
2022/09/21 04:01:51;;;;;;;5.00;3.93;;;6.50;99.90;;;;;;4201658;28;20938;-75
2022/09/21 04:03:53;;;;;;;5.53;4.00;;;6.50;99.90;;;;;;4203349;28;20462;-75
2022/09/21 04:05:55;;;;;;;8.53;4.23;;;6.50;99.90;;;;;;4195393;28;20493;-76
2022/09/21 04:07:56;;;;;;;5.73;3.90;;;6.50;99.90;;;;;;4201702;28;20882;-76
2022/09/21 04:09:58;;;;;;;7.10;3.90;;;6.50;99.90;;;;;;4194751;28;20470;-76
2022/09/21 04:12:02;;;;;;;5.60;3.83;;;6.40;99.90;;;;;;4204997;28;20453;-76
2022/09/21 04:14:04;;;;;;;7.07;4.23;;;6.40;99.90;;;;;;4198112;28;20453;-75
2022/09/21 04:16:06;;;;;;;4.53;3.50;;;6.40;99.90;;;;;;4187568;28;20493;-75
2022/09/21 04:18:08;;;;;;;5.77;3.90;;;6.40;99.90;;;;;;4202444;28;20452;-76
2022/09/21 04:20:10;;;;;;;6.33;4.30;;;6.40;99.90;;;;;;4206472;28;20467;-75
2022/09/21 04:22:12;;;;;;;5.47;3.97;;;6.40;99.90;;;;;;4183654;28;20717;-77
2022/09/21 04:24:14;;;;;;;5.53;4.30;;;6.30;99.90;;;;;;4202957;28;20467;-75
2022/09/21 04:26:22;;;;;;;7.93;4.87;;;6.30;99.90;;;;;;4186402;28;20557;-75
2022/09/21 04:28:25;;;;;;;6.27;3.93;;;6.30;99.90;;;;;;4186489;28;20451;-76
2022/09/21 04:30:28;;;;;;;8.93;4.60;;;6.30;99.90;;;;;;4190077;28;20464;-76
2022/09/21 04:32:29;;;;;;;5.90;4.27;;;6.30;99.90;;;;;;4205490;28;20459;-76
2022/09/21 04:34:31;;;;;;;7.37;4.30;;;6.30;99.90;;;;;;4204749;28;20456;-76
2022/09/21 04:36:33;;;;;;;6.10;4.00;;;6.30;99.90;;;;;;4195696;28;20518;-75
2022/09/21 04:38:35;;;;;;;5.80;4.17;;;6.30;99.90;;;;;;4201677;28;20457;-75
2022/09/21 04:40:36;;;;;;;6.13;4.17;;;6.20;99.90;;;;;;4203697;28;20436;-74
2022/09/21 04:42:38;;;;;;;6.10;3.80;;;6.20;99.90;;;;;;4188762;28;20481;-75
2022/09/21 04:44:42;;;;;;;8.50;4.40;;;6.20;99.90;;;;;;4198115;28;20454;-75
2022/09/21 04:46:43;;;;;;;6.23;4.43;;;6.20;99.90;;;;;;4205521;28;20915;-76
2022/09/21 04:48:46;;;;;;;7.90;4.60;;;6.20;99.90;;;;;;4185337;28;20457;-75
2022/09/21 04:50:49;;;;;;;6.70;4.03;;;6.20;99.90;;;;;;4202850;28;20465;-75
2022/09/21 04:52:51;;;;;;;6.30;3.83;;;6.20;99.90;;;;;;4202274;28;21238;-76
2022/09/21 04:54:52;;;;;;;5.53;3.93;;;6.10;99.90;;;;;;4201182;28;20452;-76
2022/09/21 04:56:54;;;;;;;5.73;3.73;;;6.20;99.90;;;;;;4202356;28;20510;-77
2022/09/21 04:58:56;;;;;;;6.97;3.80;;;6.10;99.90;;;;;;4202952;28;20462;-78
2022/09/21 05:01:00;;;;;;;5.13;3.73;;;6.10;99.90;;;;;;4204581;28;20540;-77
2022/09/21 05:03:02;;;;;;;7.10;4.30;;;6.10;99.90;;;;;;4201146;28;20464;-75
2022/09/21 05:05:04;;;;;;;5.20;3.57;;;6.10;99.90;;;;;;4187443;28;20452;-76
2022/09/21 05:07:06;;;;;;;5.20;3.73;;;6.10;99.90;;;;;;4184696;28;20805;-75
2022/09/21 05:11:29;;;;;;;5.13;3.53;;;6.00;99.90;;;;;;4166418;28;20440;-74
2022/09/21 05:13:30;;;;;;;5.17;3.63;;;6.10;99.90;;;;;;4201331;28;20448;-76
2022/09/21 05:15:32;;;;;;;5.20;3.90;;;6.00;99.90;;;;;;4211165;28;20949;-75
2022/09/21 05:17:35;;;;;;;6.40;4.00;;;6.00;99.90;;;;;;4204526;28;20538;-75
2022/09/21 05:19:37;;;;;;;6.83;4.37;;;6.00;99.90;;;;;;4210832;28;20465;-76
2022/09/21 05:21:39;;;;;;;7.13;4.47;;;6.00;99.90;;;;;;4191893;28;20541;-75
2022/09/21 05:23:41;;;;;;;5.87;4.00;;;6.00;99.90;;;;;;4212923;28;20447;-75
2022/09/21 05:25:44;;;;;;;6.13;4.03;;;6.00;99.90;;;;;;4207785;28;20475;-74
2022/09/21 05:27:45;;;;;;;5.03;3.50;;;6.00;99.90;;;;;;4212295;28;20539;-76
2022/09/21 05:29:48;;;;;;;7.80;4.57;;;6.00;99.90;;;;;;4212085;28;20490;-75
2022/09/21 05:31:55;;;;;;;8.07;4.50;;;6.00;99.90;;;;;;4212059;28;20449;-76
2022/09/21 05:34:05;;;;;;;7.97;4.57;;;6.00;99.90;;;;;;4207742;28;20443;-75
2022/09/21 05:36:16;;;;;;;8.50;5.00;;;6.00;99.90;;;;;;4205415;28;20505;-75
2022/09/21 05:38:19;;;;;;;8.50;4.97;;;6.00;99.90;;;;;;4206925;28;21164;-75
2022/09/21 05:40:22;;;;;;;6.63;4.27;;;6.00;99.90;;;;;;4187794;28;20454;-75
2022/09/21 05:42:24;;;;;;;8.50;4.90;;;6.00;99.90;;;;;;4204291;28;20448;-76
2022/09/21 05:44:26;;;;;;;7.63;4.47;;;6.00;99.90;;;;;;4205987;28;20463;-76
2022/09/21 05:46:37;;;;;;;7.27;4.77;;;6.00;99.90;;;;;;4204469;28;20469;-76
2022/09/21 05:48:42;;;;;;;7.77;4.30;;;6.00;99.90;;;;;;4184942;28;20444;-77
2022/09/21 05:50:52;;;;;;;6.87;4.50;;;6.00;99.90;;;;;;4202547;28;20466;-75
2022/09/21 05:53:08;;;;;;;8.43;4.50;;;6.00;99.90;;;;;;4195729;28;20456;-77
2022/09/21 05:55:22;;;;;;;7.57;4.73;;;6.00;99.90;;;;;;4193729;28;20464;-77
2022/09/21 05:57:35;;;;;;;6.13;4.33;;;6.00;99.90;;;;;;4185004;28;20444;-77
2022/09/21 05:59:47;;;;;;;8.00;4.47;;;6.00;99.90;;;;;;4201651;28;21112;-77
2022/09/21 06:01:59;;;;;;;7.33;4.67;;;6.00;99.90;;;;;;4205777;28;20475;-76
2022/09/21 06:04:03;;;;;;;6.97;4.60;;;6.00;99.90;;;;;;4194526;28;20443;-76
2022/09/21 06:06:08;;;;;;;9.77;4.73;;;6.00;99.90;;;;;;4183885;28;20484;-76
2022/09/21 06:08:10;;;;;;;5.33;3.83;;;6.10;99.90;;;;;;4201930;28;20443;-77
2022/09/21 06:10:13;;;;;;;6.73;4.60;;;6.10;99.90;;;;;;4183744;28;21302;-76
2022/09/21 06:12:15;;;;;;;8.03;4.77;;;6.10;99.90;;;;;;4200040;28;21203;-77
2022/09/21 06:14:23;;;;;;;6.63;4.37;;;6.10;99.90;;;;;;4187100;28;20993;-77
2022/09/21 06:16:25;;;;;;;8.50;4.77;;;6.10;99.90;;;;;;4198577;28;20542;-77
2022/09/21 06:18:26;;;;;;;8.40;5.07;;;6.10;99.90;;;;;;4179896;28;20472;-76
2022/09/21 06:20:28;;;;;;;7.73;5.30;;;6.10;99.90;;;;;;4205400;28;20466;-77
2022/09/21 06:22:31;;;;;;;8.57;4.93;;;6.10;99.90;;;;;;4199790;28;20530;-77
2022/09/21 06:24:33;;;;;;;8.23;5.13;;;6.10;99.90;;;;;;4191377;28;21108;-77
2022/09/21 06:26:35;;;;;;;10.93;5.50;;;6.10;99.90;;;;;;4199418;28;21174;-77
2022/09/21 06:28:37;;;;;;;8.20;5.03;;;6.20;99.90;;;;;;4198891;28;20456;-77
2022/09/21 06:30:40;;;;;;;8.77;5.20;;;6.20;99.90;;;;;;4200764;28;20456;-77
2022/09/21 06:32:42;;;;;;;8.80;4.87;;;6.20;99.90;;;;;;4201785;28;20492;-77
2022/09/21 06:34:44;;;;;;;6.57;4.60;;;6.20;99.90;;;;;;4185877;28;20452;-77
2022/09/21 06:36:46;;;;;;;10.00;5.80;;;6.30;99.90;;;;;;4181997;28;21022;-77
2022/09/21 06:38:49;;;;;;;8.20;5.53;;;6.30;99.90;;;;;;4202055;28;20480;-77
2022/09/21 06:40:52;;;;;;;10.73;6.40;;;6.30;99.90;;;;;;4198679;28;20436;-77
2022/09/21 06:42:57;;;;;;;11.07;5.47;;;6.30;99.90;;;;;;4200108;28;20491;-77
2022/09/21 06:44:59;;;;;;;8.07;5.27;;;6.40;99.90;;;;;;4197445;28;20482;-77
2022/09/21 06:47:01;;;;;;;9.20;5.63;;;6.40;99.90;;;;;;4202030;28;20454;-77
2022/09/21 06:49:03;;;;;;;11.47;6.20;;;6.40;99.90;;;;;;4199415;28;20466;-77
2022/09/21 06:51:06;;;;;;;9.40;5.80;;;6.50;99.90;;;;;;4184458;28;20464;-77
2022/09/21 06:53:08;;;;;;;7.97;5.47;;;6.50;99.90;;;;;;4193957;28;20455;-77
2022/09/21 06:55:11;;;;;;;11.40;6.07;;;6.50;99.90;;;;;;4198979;28;20552;-77
2022/09/21 06:57:13;;;;;;;9.70;5.60;;;6.60;99.90;;;;;;4199424;28;20498;-77
2022/09/21 06:59:15;;;;;;;9.07;5.70;;;6.60;99.90;;;;;;4201998;28;20512;-78
2022/09/21 07:01:17;;;;;;;9.87;6.50;;;6.70;99.90;;;;;;4203781;28;20465;-77
2022/09/21 07:03:19;;;;;;;11.63;6.27;;;6.70;99.90;;;;;;4198344;28;20493;-77
2022/09/21 07:05:21;;;;;;;8.73;5.77;;;6.80;99.90;;;;;;4203201;28;20499;-77
2022/09/21 07:07:22;;;;;;;9.83;5.90;;;6.80;99.90;;;;;;4185404;28;20459;-77
2022/09/21 07:09:24;;;;;;;10.63;5.73;;;6.90;99.90;;;;;;4185490;28;20533;-77
2022/09/21 07:11:27;;;;;;;8.30;5.63;;;6.90;99.90;;;;;;4205951;28;20461;-77
2022/09/21 07:13:30;;;;;;;12.27;5.97;;;6.90;99.90;;;;;;4184614;28;21050;-77
2022/09/21 07:15:32;;;;;;;10.70;5.93;;;7.00;99.90;;;;;;4163150;28;20996;-77
2022/09/21 07:17:36;;;;;;;9.63;5.50;;;7.00;99.90;;;;;;4188910;28;20573;-77
2022/09/21 07:19:38;;;;;;;8.60;5.17;;;7.10;99.90;;;;;;4202770;28;20470;-77
2022/09/21 07:21:40;;;;;;;9.37;5.17;;;7.10;99.90;;;;;;4201955;28;20459;-76
2022/09/21 07:23:42;;;;;;;8.37;5.33;;;7.20;99.90;;;;;;4203352;28;20566;-77
2022/09/21 07:25:45;;;;;;;10.37;6.60;;;7.20;99.90;;;;;;4206400;28;20561;-76
2022/09/21 07:27:48;;;;;;;11.20;6.50;;;7.30;99.90;;;;;;4202442;28;20443;-75
2022/09/21 07:29:49;;;;;;;10.13;6.10;;;7.30;99.90;;;;;;4204676;28;20488;-77
2022/09/21 07:31:51;;;;;;;11.00;6.70;;;7.40;99.90;;;;;;4187751;28;20466;-77
2022/09/21 07:33:58;;;;;;;9.83;6.27;;;7.50;99.90;;;;;;4202707;28;20452;-77
2022/09/21 07:35:59;;;;;;;10.60;5.67;;;7.50;99.90;;;;;;4202428;28;20487;-77
2022/09/21 07:38:03;;;;;;;9.20;5.73;;;7.50;99.90;;;;;;4187873;28;21052;-77
2022/09/21 07:40:05;;;;;;;10.27;7.27;;;7.60;99.90;;;;;;4202884;28;20468;-77
2022/09/21 07:42:08;;;;;;;14.47;7.00;;;7.60;99.90;;;;;;4197012;28;20459;-77
2022/09/21 07:44:11;;;;;;;9.93;6.23;;;7.70;99.90;;;;;;4204189;28;20821;-77
2022/09/21 07:46:14;;;;;;;11.87;6.63;;;7.80;99.90;;;;;;4203669;28;20858;-77
2022/09/21 07:48:16;;;;;;;9.80;6.43;;;7.80;99.90;;;;;;4202948;28;21070;-77
2022/09/21 07:50:18;;;;;;;10.57;6.30;;;7.90;99.90;;;;;;4188801;28;20819;-78
2022/09/21 07:52:21;;;;;;;12.23;7.33;;;7.90;99.90;;;;;;4202362;28;20684;-78
2022/09/21 07:54:22;;;;;;;13.67;6.90;;;8.00;99.90;;;;;;4185580;28;20472;-77
2022/09/21 07:56:25;;;;;;;10.40;6.20;;;8.00;99.90;;;;;;4204283;28;20501;-77
2022/09/21 08:00:48;;;;;;;9.53;6.10;;;8.10;99.90;;;;;;4199751;28;20451;-77
2022/09/21 08:02:49;;;;;;;11.77;7.20;;;8.20;99.90;;;;;;4204034;28;20507;-77
2022/09/21 08:04:52;;;;;;;10.50;6.30;;;8.20;99.90;;;;;;4180515;28;20459;-77
2022/09/21 08:06:54;;;;;;;14.00;7.63;;;8.30;99.90;;;;;;4203179;28;20476;-77
2022/09/21 08:08:56;;;;;;;9.97;6.30;;;8.40;99.90;;;;;;4203717;28;20467;-77
2022/09/21 08:11:02;;;;;;;10.90;6.53;;;8.40;99.90;;;;;;4202594;28;20471;-77
2022/09/21 08:13:05;;;;;;;10.93;6.13;;;8.50;99.90;;;;;;4205559;28;20563;-77
2022/09/21 08:15:07;;;;;;;13.90;7.87;;;8.50;99.90;;;;;;4184391;28;20464;-77
2022/09/21 08:17:11;;;;;;;8.87;6.37;;;8.60;99.90;;;;;;4184625;28;20485;-77
2022/09/21 08:19:13;;;;;;;15.00;6.67;;;8.70;99.90;;;;;;4184437;28;20539;-77
2022/09/21 08:21:15;;;;;;;13.23;7.53;;;8.70;99.90;;;;;;4203694;28;21084;-77
2022/09/21 08:23:17;;;;;;;10.97;7.10;;;8.80;99.90;;;;;;4200891;28;20463;-77
2022/09/21 08:25:19;;;;;;;10.73;6.70;;;8.90;99.90;;;;;;4201853;28;20478;-77
2022/09/21 08:27:22;;;;;;;10.23;6.77;;;8.90;99.90;;;;;;4204743;28;20501;-77
2022/09/21 08:29:24;;;;;;;12.80;7.13;;;9.00;99.90;;;;;;4203169;28;20481;-77
2022/09/21 08:31:26;;;;;;;14.10;7.97;;;9.00;99.90;;;;;;4204003;28;20198;-76
2022/09/21 08:33:29;;;;;;;13.20;7.93;;;9.10;99.90;;;;;;4208169;28;20503;-77
2022/09/21 08:35:31;;;;;;;11.20;6.77;;;9.10;99.90;;;;;;4204377;28;20471;-76
2022/09/21 08:37:35;;;;;;;12.23;6.67;;;9.20;99.90;;;;;;4203982;28;20479;-77
2022/09/21 08:39:37;;;;;;;16.23;7.03;;;9.30;99.90;;;;;;4190489;28;20491;-78
2022/09/21 08:41:53;;;;;;;10.77;6.50;;;9.40;99.90;;;;;;4188603;28;20211;-76
2022/09/21 08:44:03;;;;;;;8.67;5.53;;;9.50;99.90;;;;;;4202370;28;20288;-76
2022/09/21 08:46:07;;;;;;;9.80;5.87;;;9.50;99.90;;;;;;4187598;28;20249;-78
2022/09/21 08:48:14;;;;;;;6.83;4.70;;;9.70;99.90;;;;;;4203593;28;20202;-78
2022/09/21 08:50:34;;;;;;;9.27;5.60;;;9.80;99.90;;;;;;4192841;28;20210;-76
2022/09/21 08:52:38;;;;;;;7.50;4.90;;;9.80;99.90;;;;;;4195092;28;20213;-76
2022/09/21 08:54:47;;;;;;;8.30;5.03;;;10.00;99.90;;;;;;4199636;28;20206;-78
2022/09/21 08:56:49;;;;;;;7.50;5.23;;;10.10;99.90;;;;;;4195775;28;20230;-78
2022/09/21 08:58:51;;;;;;;6.37;4.80;;;10.20;99.90;;;;;;4200562;28;20210;-77
2022/09/21 09:01:05;;;;;;;6.53;4.77;;;10.30;99.90;;;;;;4204215;28;20216;-77
2022/09/21 09:03:27;;;;;;;7.93;5.00;;;10.30;99.90;;;;;;4196164;28;20608;-76
2022/09/21 09:05:43;;;;;;;9.30;5.20;;;10.40;99.90;;;;;;4203006;28;20237;-77
2022/09/21 09:08:02;;;;;;;8.17;5.03;;;10.50;99.90;;;;;;4187256;28;20212;-77
2022/09/21 09:10:13;;;;;;;8.07;5.17;;;10.70;99.90;;;;;;4187706;28;20689;-76
2022/09/21 09:12:28;;;;;;;7.40;4.47;;;10.80;99.90;;;;;;4185202;28;20307;-77
2022/09/21 09:14:48;;;;;;;7.10;4.73;;;10.90;99.90;;;;;;4201119;28;20191;-76
2022/09/21 09:17:04;;;;;;;7.57;4.40;;;11.00;99.90;;;;;;4201239;28;20223;-76
2022/09/21 09:19:17;;;;;;;7.73;4.37;;;11.10;99.90;;;;;;4200035;28;20210;-78
2022/09/21 09:21:24;;;;;;;9.30;5.30;;;11.20;99.90;;;;;;4202027;28;20215;-76
2022/09/21 09:23:30;;;;;;;10.43;4.50;;;11.30;99.90;;;;;;4198323;28;20575;-76
2022/09/21 09:25:36;;;;;;;10.23;4.73;;;11.40;99.90;;;;;;4183959;28;20218;-76
2022/09/21 09:27:42;;;;;;;6.93;4.13;;;11.50;99.90;;;;;;4202431;28;20322;-76
2022/09/21 09:29:50;;;;;;;7.73;3.93;;;11.60;99.90;;;;;;4183751;28;20213;-78
2022/09/21 09:31:54;;;;;;;5.87;3.80;;;11.70;99.90;;;;;;4206198;28;20207;-77
2022/09/21 09:34:00;;;;;;;4.93;3.70;;;11.80;99.90;;;;;;4183994;28;20213;-76
2022/09/21 09:36:04;;;;;;;5.90;3.53;;;11.90;99.90;;;;;;4198930;28;20221;-77
2022/09/21 09:38:15;;;;;;;5.57;3.37;;;11.90;99.90;;;;;;4206822;28;20246;-76
2022/09/21 09:40:27;;;;;;;5.23;3.70;;;12.00;99.90;;;;;;4195606;28;20217;-76
2022/09/21 09:42:46;;;;;;;5.47;3.60;;;12.10;99.90;;;;;;4185901;28;20205;-77
2022/09/21 09:45:05;;;;;;;5.40;3.17;;;12.20;99.90;;;;;;4200041;28;20218;-78
2022/09/21 09:47:17;;;;;;;5.47;2.93;;;12.40;99.90;;;;;;4198242;28;20284;-78
2022/09/21 09:49:31;;;;;;;5.13;2.60;;;12.40;99.90;;;;;;4207874;28;20257;-79
2022/09/21 09:51:37;;;;;;;5.67;2.40;;;12.50;99.90;;;;;;4191203;28;20243;-80
2022/09/21 09:53:40;;;;;;;3.70;2.53;;;12.60;99.90;;;;;;4188923;28;20319;-79
2022/09/21 09:55:45;;;;;;;5.60;2.40;;;12.70;99.90;;;;;;4188234;28;20231;-76
2022/09/21 09:57:48;;;;;;;3.47;2.43;;;12.80;99.90;;;;;;4205103;28;20579;-78
2022/09/21 09:59:54;;;;;;;4.20;2.63;;;12.90;99.90;;;;;;4197905;28;20208;-78
2022/09/21 10:02:02;;;;;;;4.80;2.67;;;13.00;99.90;;;;;;4204848;28;20566;-77
2022/09/21 10:04:08;;;;;;;4.10;2.73;;;13.10;99.90;;;;;;4199888;28;20226;-77
2022/09/21 10:06:30;;;;;;;3.50;2.37;;;13.30;99.90;;;;;;4206215;28;20240;-78
2022/09/21 10:08:45;;;;;;;3.93;2.50;;;13.30;99.90;;;;;;4197447;28;20205;-77
2022/09/21 10:10:48;;;;;;;3.80;2.37;;;13.50;99.90;;;;;;4188485;28;20271;-77
2022/09/21 10:12:51;;;;;;;4.53;2.07;;;13.60;99.90;;;;;;4200762;28;20234;-77
2022/09/21 10:14:56;;;;;;;4.97;2.23;;;13.70;99.90;;;;;;4187810;28;20219;-78
2022/09/21 10:17:03;;;;;;;3.00;2.30;;;13.80;99.90;;;;;;4180094;28;20791;-77
2022/09/21 10:19:05;;;;;;;4.17;2.43;;;13.90;99.90;;;;;;4190400;28;20214;-78
2022/09/21 10:21:09;;;;;;;4.30;2.10;;;14.00;99.90;;;;;;4199410;28;20217;-77
2022/09/21 10:23:13;;;;;;;3.83;2.10;;;14.10;99.90;;;;;;4186879;28;20227;-77
2022/09/21 10:25:18;;;;;;;5.40;2.20;;;14.20;99.90;;;;;;4200463;28;20206;-77
2022/09/21 10:27:25;;;;;;;4.13;2.00;;;14.30;99.90;;;;;;4201477;28;20204;-77
2022/09/21 10:29:33;;;;;;;3.60;1.90;;;14.40;99.90;;;;;;4175299;28;20217;-77
2022/09/21 10:31:35;;;;;;;3.23;2.23;;;14.50;99.90;;;;;;4168440;28;20213;-77
2022/09/21 10:33:50;;;;;;;4.23;1.77;;;14.60;99.90;;;;;;4199386;28;20410;-77
2022/09/21 10:35:53;;;;;;;3.87;1.87;;;14.70;99.90;;;;;;4182425;28;20233;-78
2022/09/21 10:38:10;;;;;;;3.07;1.70;;;14.80;99.90;;;;;;4209191;28;20599;-78
2022/09/21 10:40:25;;;;;;;2.97;1.80;;;14.90;99.90;;;;;;4184948;28;20611;-77
2022/09/21 10:42:31;;;;;;;3.67;1.67;;;15.00;99.90;;;;;;4190199;28;20303;-77
2022/09/21 10:44:40;;;;;;;2.87;1.53;;;15.00;99.90;;;;;;4206290;28;20197;-77
2022/09/21 10:46:42;;;;;;;2.97;1.60;;;15.10;99.90;;;;;;4202738;28;20311;-77
2022/09/21 10:48:46;;;;;;;2.57;1.60;;;15.10;99.90;;;;;;4202073;28;20202;-77
2022/09/21 10:50:50;;;;;;;2.37;1.33;;;15.10;99.90;;;;;;4203892;28;20205;-77
2022/09/21 10:52:58;;;;;;;5.73;1.90;;;15.20;99.90;;;;;;4197108;28;20681;-77
2022/09/21 10:55:00;;;;;;;2.20;1.37;;;15.30;99.90;;;;;;4206281;28;20229;-77
2022/09/21 10:57:07;;;;;;;2.60;1.23;;;15.30;99.90;;;;;;4186884;28;20218;-77
2022/09/21 10:59:20;;;;;;;2.63;1.40;;;15.40;99.90;;;;;;4201880;28;20269;-77
2022/09/21 11:01:27;;;;;;;1.50;1.00;;;15.50;99.90;;;;;;4205566;28;20265;-77